Time;durP1;ratioP1;P1;durP2;ratioP2;P2;SDS_P1;SDS_P2;PMS_P1;PMS_P2;Temp;Humidity;BMP_temperature;BMP_pressure;BME280_temperature;BME280_humidity;BME280_pressure;Samples;Min_cycle;Max_cycle;Signal;HPM_P1;HPM_P2
2021/04/10 00:02:18;;;;;;;13.38;8.23;;;;;;;;;;5141397;27;20048;-87
2021/04/10 00:04:44;;;;;;;11.88;7.63;;;;;;;;;;5141842;27;20030;-86
2021/04/10 00:07:10;;;;;;;13.07;7.72;;;;;;;;;;5140715;27;20019;-87
2021/04/10 00:09:36;;;;;;;13.77;7.90;;;;;;;;;;5140586;27;20023;-87
2021/04/10 00:12:02;;;;;;;18.67;8.70;;;;;;;;;;5141320;27;20019;-87
2021/04/10 00:14:29;;;;;;;15.73;8.85;;;;;;;;;;5140348;27;20035;-87
2021/04/10 00:17:13;;;;;;;15.65;9.23;;;;;;;;;;5141469;27;20077;-86
2021/04/10 00:19:39;;;;;;;14.95;9.38;;;;;;;;;;5141079;27;20125;-86
2021/04/10 00:22:06;;;;;;;14.25;9.10;;;;;;;;;;5141362;27;20064;-86
2021/04/10 00:24:32;;;;;;;16.13;9.18;;;;;;;;;;5141377;27;20023;-86
2021/04/10 00:26:58;;;;;;;19.90;9.68;;;;;;;;;;5140978;27;20043;-86
2021/04/10 00:29:24;;;;;;;18.77;10.10;;;;;;;;;;5140108;27;20027;-86
2021/04/10 00:31:50;;;;;;;16.05;9.30;;;;;;;;;;5141230;27;20071;-86
2021/04/10 00:34:16;;;;;;;16.98;9.65;;;;;;;;;;5140844;27;20055;-86
2021/04/10 00:36:42;;;;;;;15.15;9.02;;;;;;;;;;5140804;27;20030;-87
2021/04/10 00:39:08;;;;;;;15.75;9.52;;;;;;;;;;5140741;27;20023;-87
2021/04/10 00:41:34;;;;;;;16.17;8.63;;;;;;;;;;5140966;27;20035;-87
2021/04/10 00:44:00;;;;;;;14.38;7.93;;;;;;;;;;5140761;27;20019;-87
2021/04/10 00:46:26;;;;;;;13.15;7.70;;;;;;;;;;5140876;27;20349;-86
2021/04/10 00:48:52;;;;;;;14.98;8.65;;;;;;;;;;5140419;27;20032;-86
2021/04/10 00:51:18;;;;;;;14.93;8.95;;;;;;;;;;5139706;27;20037;-86
2021/04/10 00:53:44;;;;;;;15.93;9.50;;;;;;;;;;5140554;27;20047;-86
2021/04/10 00:56:11;;;;;;;19.35;9.32;;;;;;;;;;5140482;27;20024;-86
2021/04/10 00:58:37;;;;;;;15.82;9.05;;;;;;;;;;5140444;27;20030;-86
2021/04/10 01:01:15;;;;;;;16.80;9.20;;;;;;;;;;5140652;27;20039;-86
2021/04/10 01:03:41;;;;;;;18.38;9.27;;;;;;;;;;5139205;27;20027;-86
2021/04/10 01:06:08;;;;;;;16.67;9.13;;;;;;;;;;5140227;27;20019;-85
2021/04/10 01:08:34;;;;;;;21.98;9.30;;;;;;;;;;5140543;27;20027;-86
2021/04/10 01:11:11;;;;;;;21.80;9.63;;;;;;;;;;5139327;27;20019;-85
2021/04/10 01:13:49;;;;;;;16.35;9.30;;;;;;;;;;5140433;27;20080;-85
2021/04/10 01:16:19;;;;;;;19.10;10.10;;;;;;;;;;5139192;27;20072;-85
2021/04/10 01:18:46;;;;;;;17.92;9.63;;;;;;;;;;5139981;27;20090;-85
2021/04/10 01:21:18;;;;;;;16.30;9.50;;;;;;;;;;5139073;27;20071;-88
2021/04/10 01:24:03;;;;;;;21.10;9.93;;;;;;;;;;5140067;27;20086;-89
2021/04/10 01:26:48;;;;;;;22.90;12.10;;;;;;;;;;5138905;27;20463;-85
2021/04/10 01:29:15;;;;;;;19.17;10.63;;;;;;;;;;5138762;27;20038;-85
2021/04/10 01:31:47;;;;;;;21.08;11.90;;;;;;;;;;5138744;27;20016;-86
2021/04/10 01:34:19;;;;;;;17.63;10.05;;;;;;;;;;5140282;27;20015;-86
2021/04/10 01:36:48;;;;;;;20.77;9.75;;;;;;;;;;5139976;27;20027;-86
2021/04/10 01:39:14;;;;;;;18.67;9.63;;;;;;;;;;5138461;27;20033;-86
2021/04/10 01:41:45;;;;;;;15.57;9.32;;;;;;;;;;5139895;27;20312;-87
2021/04/10 01:44:13;;;;;;;17.85;9.10;;;;;;;;;;5138754;27;20026;-86
2021/04/10 01:46:39;;;;;;;15.52;9.27;;;;;;;;;;5139449;27;20069;-86
2021/04/10 01:49:06;;;;;;;19.05;9.98;;;;;;;;;;5139705;27;20332;-86
2021/04/10 01:51:33;;;;;;;19.77;9.82;;;;;;;;;;5139038;27;20023;-86
2021/04/10 01:54:00;;;;;;;15.43;9.00;;;;;;;;;;5139462;27;20022;-86
2021/04/10 01:56:28;;;;;;;18.02;9.85;;;;;;;;;;5138471;27;20055;-86
2021/04/10 01:58:54;;;;;;;16.58;9.98;;;;;;;;;;5139535;27;20035;-86
2021/04/10 02:01:21;;;;;;;21.23;9.98;;;;;;;;;;5138974;27;20026;-87
2021/04/10 02:03:47;;;;;;;16.55;9.68;;;;;;;;;;5138234;27;20134;-86
2021/04/10 02:06:14;;;;;;;16.55;10.00;;;;;;;;;;5139348;27;20024;-85
2021/04/10 02:08:43;;;;;;;19.00;10.50;;;;;;;;;;5139223;27;20098;-85
2021/04/10 02:11:10;;;;;;;19.23;10.43;;;;;;;;;;5139119;27;20027;-86
2021/04/10 02:13:37;;;;;;;20.65;10.70;;;;;;;;;;5139163;27;20023;-86
2021/04/10 02:16:03;;;;;;;18.30;10.35;;;;;;;;;;5138917;27;20023;-86
2021/04/10 02:21:33;;;;;;;22.50;10.63;;;;;;;;;;5135184;27;20355;-84
2021/04/10 02:24:00;;;;;;;22.52;11.40;;;;;;;;;;5138854;27;20031;-85
2021/04/10 02:26:26;;;;;;;24.48;11.32;;;;;;;;;;5139119;27;20309;-85
2021/04/10 02:28:52;;;;;;;22.10;11.15;;;;;;;;;;5138995;27;20011;-85
2021/04/10 02:34:59;;;;;;;20.85;11.20;;;;;;;;;;5138955;27;20079;-84
2021/04/10 02:37:26;;;;;;;20.33;9.68;;;;;;;;;;5138610;27;20054;-84
2021/04/10 02:39:53;;;;;;;17.23;9.95;;;;;;;;;;5139027;27;20039;-85
2021/04/10 02:42:20;;;;;;;22.27;10.32;;;;;;;;;;5138538;27;20026;-87
2021/04/10 02:44:50;;;;;;;19.75;9.55;;;;;;;;;;5138889;28;20138;-85
2021/04/10 02:47:18;;;;;;;18.88;10.02;;;;;;;;;;5138522;28;20019;-86
2021/04/10 02:49:45;;;;;;;20.00;10.52;;;;;;;;;;5138477;28;20072;-84
2021/04/10 02:52:12;;;;;;;21.58;11.55;;;;;;;;;;5140611;27;20034;-84
2021/04/10 02:54:42;;;;;;;21.52;10.13;;;;;;;;;;5142913;27;20153;-83
2021/04/10 02:57:10;;;;;;;21.85;11.27;;;;;;;;;;5142872;27;20316;-84
2021/04/10 02:59:39;;;;;;;23.67;11.00;;;;;;;;;;5141860;27;20110;-84
2021/04/10 03:02:06;;;;;;;20.95;11.55;;;;;;;;;;5142800;27;20380;-84
2021/04/10 03:04:32;;;;;;;23.05;11.38;;;;;;;;;;5142916;27;20025;-84
2021/04/10 03:06:59;;;;;;;21.95;10.93;;;;;;;;;;5142608;27;20037;-85
2021/04/10 03:09:27;;;;;;;24.35;11.68;;;;;;;;;;5142854;27;20023;-86
2021/04/10 03:11:53;;;;;;;27.95;13.02;;;;;;;;;;5142760;27;20098;-85
2021/04/10 03:14:19;;;;;;;24.85;13.10;;;;;;;;;;5142477;27;20027;-85
2021/04/10 03:16:46;;;;;;;32.03;16.23;;;;;;;;;;5142612;27;20019;-86
2021/04/10 03:19:12;;;;;;;30.33;17.38;;;;;;;;;;5142222;27;20034;-85
2021/04/10 03:21:41;;;;;;;29.73;16.38;;;;;;;;;;5142206;27;20500;-86
2021/04/10 03:24:08;;;;;;;25.27;14.63;;;;;;;;;;5142515;27;20389;-85
2021/04/10 03:26:34;;;;;;;23.02;13.50;;;;;;;;;;5141882;27;20015;-85
2021/04/10 03:29:02;;;;;;;26.17;13.57;;;;;;;;;;5142300;27;20279;-84
2021/04/10 03:31:34;;;;;;;25.90;14.45;;;;;;;;;;5142047;27;20313;-84
2021/04/10 03:34:00;;;;;;;36.28;17.77;;;;;;;;;;5142154;27;20023;-86
2021/04/10 03:36:27;;;;;;;33.53;14.95;;;;;;;;;;5142151;27;20030;-84
2021/04/10 03:38:53;;;;;;;45.95;19.83;;;;;;;;;;5142018;27;20022;-85
2021/04/10 03:41:22;;;;;;;58.75;21.48;;;;;;;;;;5140935;27;20038;-86
2021/04/10 03:43:48;;;;;;;52.28;21.40;;;;;;;;;;5141660;27;20027;-83
2021/04/10 03:46:14;;;;;;;43.58;18.80;;;;;;;;;;5141617;27;20436;-83
2021/04/10 03:48:40;;;;;;;38.05;18.75;;;;;;;;;;5141559;27;20064;-83
2021/04/10 03:51:06;;;;;;;28.95;16.60;;;;;;;;;;5141716;27;20023;-83
2021/04/10 03:53:32;;;;;;;30.40;16.48;;;;;;;;;;5141680;27;20030;-83
2021/04/10 03:55:58;;;;;;;27.00;15.23;;;;;;;;;;5141476;27;20022;-83
2021/04/10 03:58:24;;;;;;;23.45;13.50;;;;;;;;;;5141513;27;20030;-83
2021/04/10 04:00:50;;;;;;;22.00;13.15;;;;;;;;;;5141509;27;20025;-85
2021/04/10 04:03:16;;;;;;;21.52;13.13;;;;;;;;;;5141188;27;20089;-85
2021/04/10 04:05:43;;;;;;;26.00;13.45;;;;;;;;;;5141636;27;20437;-85
2021/04/10 04:08:09;;;;;;;29.38;15.55;;;;;;;;;;5140621;27;20015;-87
2021/04/10 04:10:35;;;;;;;40.00;19.52;;;;;;;;;;5141722;27;20141;-86
2021/04/10 04:13:01;;;;;;;89.80;34.35;;;;;;;;;;5140423;27;20023;-86
2021/04/10 04:15:27;;;;;;;91.22;38.22;;;;;;;;;;5141248;27;20027;-87
2021/04/10 04:17:53;;;;;;;41.60;21.42;;;;;;;;;;5141184;27;20102;-86
2021/04/10 04:20:20;;;;;;;31.30;16.55;;;;;;;;;;5141213;27;20413;-86
2021/04/10 04:22:46;;;;;;;27.88;16.25;;;;;;;;;;5140120;27;20324;-85
2021/04/10 04:25:12;;;;;;;25.45;16.77;;;;;;;;;;5141326;27;20343;-86
2021/04/10 04:27:38;;;;;;;29.30;16.00;;;;;;;;;;5141348;27;20290;-86
2021/04/10 04:30:05;;;;;;;28.98;13.98;;;;;;;;;;5141349;27;20027;-86
2021/04/10 04:32:32;;;;;;;24.85;13.25;;;;;;;;;;5141007;27;20098;-88
2021/04/10 04:34:58;;;;;;;27.33;14.88;;;;;;;;;;5141086;27;20161;-88
2021/04/10 04:37:24;;;;;;;23.00;15.95;;;;;;;;;;5140931;27;20016;-89
2021/04/10 04:39:50;;;;;;;26.42;15.80;;;;;;;;;;5139865;27;20029;-85
2021/04/10 04:42:16;;;;;;;21.15;13.52;;;;;;;;;;5139672;27;20031;-85
2021/04/10 04:44:43;;;;;;;20.55;12.77;;;;;;;;;;5140906;27;20345;-85
2021/04/10 04:47:09;;;;;;;27.40;14.70;;;;;;;;;;5140736;27;20346;-85
2021/04/10 04:49:35;;;;;;;21.58;12.98;;;;;;;;;;5140050;27;20031;-86
2021/04/10 04:52:01;;;;;;;36.92;21.88;;;;;;;;;;5140900;27;20380;-85
2021/04/10 04:54:27;;;;;;;31.90;18.90;;;;;;;;;;5139745;27;20113;-86
2021/04/10 04:56:53;;;;;;;41.65;22.17;;;;;;;;;;5140474;27;20022;-86
2021/04/10 04:59:19;;;;;;;39.28;23.95;;;;;;;;;;5140556;27;20080;-86
2021/04/10 05:04:49;;;;;;;44.95;26.58;;;;;;;;;;5140654;27;20022;-86
2021/04/10 05:07:15;;;;;;;52.95;27.55;;;;;;;;;;5139471;27;20140;-85
2021/04/10 05:09:41;;;;;;;39.65;23.83;;;;;;;;;;5140662;27;20023;-87
2021/04/10 05:12:07;;;;;;;39.17;21.98;;;;;;;;;;5140466;27;20027;-86
2021/04/10 05:14:34;;;;;;;37.70;20.02;;;;;;;;;;5140016;27;20359;-86
2021/04/10 05:17:18;;;;;;;43.33;19.42;;;;;;;;;;5140240;27;20072;-87
2021/04/10 05:19:44;;;;;;;49.67;22.10;;;;;;;;;;5140130;27;20039;-84
2021/04/10 05:22:10;;;;;;;48.25;21.30;;;;;;;;;;5139844;27;20029;-85
2021/04/10 05:24:36;;;;;;;44.17;22.58;;;;;;;;;;5138866;27;20097;-84
2021/04/10 05:27:02;;;;;;;43.65;21.55;;;;;;;;;;5139723;27;20023;-84
2021/04/10 05:29:28;;;;;;;39.17;20.33;;;;;;;;;;5139547;27;20023;-84
2021/04/10 05:34:58;;;;;;;28.92;16.52;;;;;;;;;;5139819;27;20030;-87
2021/04/10 05:37:24;;;;;;;24.00;14.05;;;;;;;;;;5139918;27;20027;-86
2021/04/10 05:39:50;;;;;;;26.80;13.20;;;;;;;;;;5138705;27;20031;-85
2021/04/10 05:42:17;;;;;;;27.17;14.35;;;;;;;;;;5139590;27;20030;-86
2021/04/10 05:44:43;;;;;;;27.42;15.23;;;;;;;;;;5139636;27;20033;-85
2021/04/10 05:47:09;;;;;;;28.42;15.68;;;;;;;;;;5138668;27;20049;-85
2021/04/10 05:49:35;;;;;;;29.02;16.55;;;;;;;;;;5139354;27;20023;-86
2021/04/10 05:52:01;;;;;;;27.45;17.00;;;;;;;;;;5139396;27;20067;-86
2021/04/10 05:54:27;;;;;;;24.27;14.98;;;;;;;;;;5138627;27;20043;-86
2021/04/10 05:56:53;;;;;;;26.30;15.38;;;;;;;;;;5138454;27;20043;-84
2021/04/10 05:59:19;;;;;;;26.73;15.52;;;;;;;;;;5139113;27;20030;-79
2021/04/10 06:01:45;;;;;;;26.63;15.73;;;;;;;;;;5138678;27;20106;-79
2021/04/10 06:04:11;;;;;;;22.95;13.93;;;;;;;;;;5138650;27;20088;-79
2021/04/10 06:06:37;;;;;;;30.08;15.40;;;;;;;;;;5138860;27;20042;-79
2021/04/10 06:09:03;;;;;;;29.33;16.45;;;;;;;;;;5137403;27;20027;-80
2021/04/10 06:11:29;;;;;;;25.92;14.65;;;;;;;;;;5138468;27;20019;-79
2021/04/10 06:13:55;;;;;;;25.15;14.52;;;;;;;;;;5138156;27;20397;-79
2021/04/10 06:16:21;;;;;;;25.05;14.07;;;;;;;;;;5138658;27;20027;-78
2021/04/10 06:18:48;;;;;;;27.73;14.77;;;;;;;;;;5138527;27;20039;-80
2021/04/10 06:21:14;;;;;;;32.58;16.33;;;;;;;;;;5138411;27;20118;-78
2021/04/10 06:23:41;;;;;;;30.90;16.08;;;;;;;;;;5138298;27;20051;-79
2021/04/10 06:26:07;;;;;;;28.08;15.65;;;;;;;;;;5137328;27;20027;-78
2021/04/10 06:28:33;;;;;;;24.63;13.23;;;;;;;;;;5138328;27;20339;-77
2021/04/10 06:31:01;;;;;;;21.80;12.40;;;;;;;;;;5138541;27;20019;-78
2021/04/10 06:33:27;;;;;;;24.20;12.80;;;;;;;;;;5138258;27;20421;-77
2021/04/10 06:35:53;;;;;;;20.80;12.32;;;;;;;;;;5137848;27;20022;-77
2021/04/10 06:38:20;;;;;;;23.73;14.15;;;;;;;;;;5138101;27;20019;-78
2021/04/10 06:40:46;;;;;;;25.58;14.07;;;;;;;;;;5137112;27;20149;-78
2021/04/10 06:43:12;;;;;;;20.85;12.45;;;;;;;;;;5138096;27;20023;-78
2021/04/10 06:45:39;;;;;;;27.25;12.80;;;;;;;;;;5137027;27;20431;-77
2021/04/10 06:48:05;;;;;;;18.50;10.93;;;;;;;;;;5138143;28;20023;-78
2021/04/10 06:50:31;;;;;;;16.73;10.13;;;;;;;;;;5137883;28;20027;-77
2021/04/10 06:52:57;;;;;;;18.58;11.05;;;;;;;;;;5138120;28;20336;-77
2021/04/10 06:55:25;;;;;;;17.15;10.25;;;;;;;;;;5137993;28;20499;-78
2021/04/10 06:57:57;;;;;;;20.77;11.13;;;;;;;;;;5136569;28;20038;-77
2021/04/10 07:00:24;;;;;;;20.35;10.07;;;;;;;;;;5136877;28;20394;-77
2021/04/10 07:02:50;;;;;;;21.63;13.15;;;;;;;;;;5137785;28;20114;-77
2021/04/10 07:05:17;;;;;;;22.40;11.75;;;;;;;;;;5137998;28;20019;-77
2021/04/10 07:07:43;;;;;;;38.28;26.95;;;;;;;;;;5137899;28;20026;-77
2021/04/10 07:10:10;;;;;;;26.27;15.18;;;;;;;;;;5136317;28;20114;-78
2021/04/10 07:12:37;;;;;;;18.13;10.38;;;;;;;;;;5136775;28;20123;-77
2021/04/10 07:15:05;;;;;;;18.52;11.45;;;;;;;;;;5136669;28;20417;-77
2021/04/10 07:17:31;;;;;;;21.65;11.00;;;;;;;;;;5138023;28;20381;-78
2021/04/10 07:19:57;;;;;;;13.90;9.60;;;;;;;;;;5136126;28;20311;-78
2021/04/10 07:22:23;;;;;;;15.75;7.35;;;;;;;;;;5136333;28;20041;-77
2021/04/10 07:24:49;;;;;;;20.65;8.93;;;;;;;;;;5136460;28;20023;-77
2021/04/10 07:27:18;;;;;;;18.48;8.82;;;;;;;;;;5137641;28;20027;-77
2021/04/10 07:29:45;;;;;;;17.88;9.13;;;;;;;;;;5137692;27;20045;-77
2021/04/10 07:32:31;;;;;;;17.08;9.48;;;;;;;;;;5137569;28;20030;-78
2021/04/10 07:34:58;;;;;;;17.80;8.32;;;;;;;;;;5137843;27;20067;-78
2021/04/10 07:37:37;;;;;;;15.23;8.00;;;;;;;;;;5137976;27;20030;-77
2021/04/10 07:40:09;;;;;;;34.75;19.92;;;;;;;;;;5141730;27;20026;-77
2021/04/10 07:42:36;;;;;;;18.08;10.00;;;;;;;;;;5141627;27;20020;-77
2021/04/10 07:45:02;;;;;;;19.90;10.80;;;;;;;;;;5141622;27;20019;-77
2021/04/10 07:47:36;;;;;;;14.10;7.88;;;;;;;;;;5122578;27;20120;-77
2021/04/10 07:50:12;;;;;;;16.50;8.77;;;;;;;;;;5140341;27;20080;-77
2021/04/10 07:52:38;;;;;;;38.40;22.23;;;;;;;;;;5141469;27;20027;-78
2021/04/10 07:55:05;;;;;;;17.23;9.60;;;;;;;;;;5141274;27;20308;-78
2021/04/10 07:57:31;;;;;;;24.45;12.98;;;;;;;;;;5140793;27;20035;-78
2021/04/10 07:59:59;;;;;;;19.00;9.15;;;;;;;;;;5140032;27;20073;-78
2021/04/10 08:02:25;;;;;;;19.00;10.90;;;;;;;;;;5141115;27;20023;-77
2021/04/10 08:04:55;;;;;;;11.35;4.72;;;;;;;;;;5140991;27;20023;-78
2021/04/10 08:07:25;;;;;;;19.00;8.55;;;;;;;;;;5140771;27;20022;-77
2021/04/10 08:09:56;;;;;;;17.27;9.23;;;;;;;;;;5139812;27;20023;-80
2021/04/10 08:12:26;;;;;;;7.70;4.20;;;;;;;;;;5140838;27;20027;-78
2021/04/10 08:14:52;;;;;;;15.98;7.35;;;;;;;;;;5140756;27;20339;-78
2021/04/10 08:17:40;;;;;;;12.00;4.70;;;;;;;;;;5140780;27;20071;-78
2021/04/10 08:20:23;;;;;;;8.18;5.00;;;;;;;;;;5140847;27;20385;-78
2021/04/10 08:22:50;;;;;;;11.18;4.95;;;;;;;;;;5140729;27;20019;-78
2021/04/10 08:25:29;;;;;;;15.85;7.25;;;;;;;;;;5140818;27;20027;-77
2021/04/10 08:27:56;;;;;;;16.88;7.18;;;;;;;;;;5139758;27;20041;-77
2021/04/10 08:30:22;;;;;;;22.70;14.00;;;;;;;;;;5140801;27;20103;-77
2021/04/10 08:32:48;;;;;;;13.05;6.38;;;;;;;;;;5140365;27;20408;-78
2021/04/10 08:35:15;;;;;;;19.65;10.30;;;;;;;;;;5140503;27;20423;-77
2021/04/10 08:37:42;;;;;;;11.00;5.55;;;;;;;;;;5140382;27;20055;-78
2021/04/10 08:40:09;;;;;;;6.65;3.22;;;;;;;;;;5140075;27;20110;-77
2021/04/10 08:42:36;;;;;;;21.92;8.60;;;;;;;;;;5140069;27;20019;-78
2021/04/10 08:45:02;;;;;;;22.52;12.05;;;;;;;;;;5140454;27;20098;-77
2021/04/10 08:47:28;;;;;;;14.43;7.00;;;;;;;;;;5138786;27;20059;-78
2021/04/10 08:49:55;;;;;;;10.23;5.30;;;;;;;;;;5139399;27;20432;-77
2021/04/10 08:52:23;;;;;;;10.43;4.45;;;;;;;;;;5140226;27;20039;-78
2021/04/10 08:54:50;;;;;;;14.00;6.18;;;;;;;;;;5140203;27;20023;-78
2021/04/10 08:57:17;;;;;;;16.05;8.27;;;;;;;;;;5139956;27;20077;-77
2021/04/10 08:59:44;;;;;;;11.82;5.22;;;;;;;;;;5138901;27;20062;-78
2021/04/10 09:02:15;;;;;;;29.25;15.05;;;;;;;;;;5138631;27;20080;-77
2021/04/10 09:04:55;;;;;;;10.75;7.38;;;;;;;;;;5139783;27;20046;-78
2021/04/10 09:07:40;;;;;;;14.20;7.60;;;;;;;;;;5139905;27;20064;-78
2021/04/10 09:10:07;;;;;;;21.98;9.65;;;;;;;;;;5139582;27;20127;-76
2021/04/10 09:12:33;;;;;;;16.45;5.57;;;;;;;;;;5139574;27;20295;-77
2021/04/10 09:15:06;;;;;;;6.03;2.97;;;;;;;;;;5139710;27;20045;-77
2021/04/10 09:17:50;;;;;;;28.50;15.68;;;;;;;;;;5139678;27;20042;-77
2021/04/10 09:20:16;;;;;;;10.73;5.43;;;;;;;;;;5139270;27;20055;-77
2021/04/10 09:22:42;;;;;;;18.23;8.13;;;;;;;;;;5139340;27;20024;-77
2021/04/10 09:25:10;;;;;;;12.75;3.92;;;;;;;;;;5139407;27;20026;-77
2021/04/10 09:27:36;;;;;;;10.25;3.83;;;;;;;;;;5139456;27;20019;-77
2021/04/10 09:30:05;;;;;;;5.78;2.28;;;;;;;;;;5139458;27;20026;-78
2021/04/10 09:32:31;;;;;;;13.60;4.72;;;;;;;;;;5139304;27;20401;-78
2021/04/10 09:35:01;;;;;;;6.90;2.08;;;;;;;;;;5139405;27;20035;-78
2021/04/10 09:37:27;;;;;;;17.25;9.40;;;;;;;;;;5139260;27;20076;-78
2021/04/10 09:40:06;;;;;;;58.25;22.45;;;;;;;;;;5137962;27;20043;-77
2021/04/10 09:42:45;;;;;;;16.58;5.63;;;;;;;;;;5138900;27;20045;-76
2021/04/10 09:45:11;;;;;;;14.10;5.45;;;;;;;;;;5138945;27;20027;-78
2021/04/10 09:48:01;;;;;;;17.48;7.47;;;;;;;;;;5137852;27;20308;-79
2021/04/10 09:50:40;;;;;;;13.07;6.78;;;;;;;;;;5137943;27;20182;-78
2021/04/10 09:53:06;;;;;;;17.35;7.47;;;;;;;;;;5139037;27;20290;-78
2021/04/10 09:55:35;;;;;;;9.35;3.03;;;;;;;;;;5138960;27;20027;-78
2021/04/10 09:58:02;;;;;;;18.75;9.48;;;;;;;;;;5138895;27;20015;-79
2021/04/10 10:00:28;;;;;;;36.00;21.38;;;;;;;;;;5138758;27;20066;-78
2021/04/10 10:02:54;;;;;;;29.58;17.23;;;;;;;;;;5138586;27;20050;-79
2021/04/10 10:05:21;;;;;;;15.23;5.13;;;;;;;;;;5138588;27;20015;-79
2021/04/10 10:07:47;;;;;;;23.63;11.63;;;;;;;;;;5138542;27;20033;-78
2021/04/10 10:10:14;;;;;;;16.77;8.80;;;;;;;;;;5138592;27;20106;-79
2021/04/10 10:12:40;;;;;;;16.00;7.07;;;;;;;;;;5138591;27;20019;-79
2021/04/10 10:15:26;;;;;;;9.73;3.70;;;;;;;;;;5138327;27;20030;-79
2021/04/10 10:17:52;;;;;;;22.45;8.70;;;;;;;;;;5137415;27;20118;-77
2021/04/10 10:20:18;;;;;;;12.30;4.93;;;;;;;;;;5138342;27;20079;-77
2021/04/10 10:22:44;;;;;;;13.50;6.15;;;;;;;;;;5138322;27;20023;-77
2021/04/10 10:25:11;;;;;;;14.05;5.97;;;;;;;;;;5136893;27;20482;-77
2021/04/10 10:27:41;;;;;;;9.18;3.70;;;;;;;;;;5138189;27;20424;-77
2021/04/10 10:30:14;;;;;;;17.17;7.75;;;;;;;;;;5138258;27;20468;-77
2021/04/10 10:32:42;;;;;;;20.20;8.43;;;;;;;;;;5138200;27;20437;-78
2021/04/10 10:35:09;;;;;;;32.92;14.75;;;;;;;;;;5138241;27;20424;-79
2021/04/10 10:37:35;;;;;;;61.92;33.72;;;;;;;;;;5137085;27;20057;-78
2021/04/10 10:40:01;;;;;;;9.27;5.30;;;;;;;;;;5138222;27;20046;-78
2021/04/10 10:42:28;;;;;;;13.98;5.53;;;;;;;;;;5136757;27;20344;-79
2021/04/10 10:44:54;;;;;;;15.35;8.13;;;;;;;;;;5138177;27;20033;-79
2021/04/10 10:47:24;;;;;;;13.10;7.75;;;;;;;;;;5137997;27;20397;-78
2021/04/10 10:49:50;;;;;;;17.10;10.55;;;;;;;;;;5138165;27;20031;-77
2021/04/10 10:52:17;;;;;;;15.75;5.22;;;;;;;;;;5137144;28;20027;-79
2021/04/10 10:54:43;;;;;;;16.08;8.32;;;;;;;;;;5138056;27;20354;-78
2021/04/10 10:57:13;;;;;;;10.75;4.88;;;;;;;;;;5137944;28;20027;-78
2021/04/10 10:59:39;;;;;;;16.85;10.02;;;;;;;;;;5137916;28;20412;-79
2021/04/10 11:02:07;;;;;;;8.20;4.70;;;;;;;;;;5137977;28;20065;-78
2021/04/10 11:04:35;;;;;;;7.25;3.58;;;;;;;;;;5137978;28;20027;-78
2021/04/10 11:07:02;;;;;;;6.82;3.50;;;;;;;;;;5137926;28;20049;-78
2021/04/10 11:09:30;;;;;;;14.98;7.13;;;;;;;;;;5137953;28;20023;-78
2021/04/10 11:12:06;;;;;;;14.63;7.03;;;;;;;;;;5137906;27;20030;-79
2021/04/10 11:14:34;;;;;;;67.50;23.38;;;;;;;;;;5141776;27;20040;-78
2021/04/10 11:17:02;;;;;;;52.33;16.85;;;;;;;;;;5142133;27;20023;-78
2021/04/10 11:19:28;;;;;;;146.95;41.13;;;;;;;;;;5142064;27;20030;-78
2021/04/10 11:21:55;;;;;;;87.10;26.23;;;;;;;;;;5141794;27;20057;-79
2021/04/10 11:24:22;;;;;;;65.82;19.00;;;;;;;;;;5140569;27;20022;-78
2021/04/10 11:26:50;;;;;;;17.70;4.82;;;;;;;;;;5140307;27;20306;-76
2021/04/10 11:29:18;;;;;;;10.73;3.33;;;;;;;;;;5141954;27;20067;-76
2021/04/10 11:31:44;;;;;;;13.00;3.80;;;;;;;;;;5141668;27;20102;-76
2021/04/10 11:34:29;;;;;;;19.20;5.72;;;;;;;;;;5141650;27;20312;-76
2021/04/10 11:36:55;;;;;;;10.85;4.20;;;;;;;;;;5141503;27;20026;-76
2021/04/10 11:39:21;;;;;;;8.85;4.10;;;;;;;;;;5141506;27;20026;-76
2021/04/10 11:41:48;;;;;;;13.00;3.88;;;;;;;;;;5140296;27;20034;-76
2021/04/10 11:44:14;;;;;;;10.38;4.35;;;;;;;;;;5141572;27;20426;-76
2021/04/10 11:46:41;;;;;;;13.13;5.03;;;;;;;;;;5140243;27;20045;-76
2021/04/10 11:49:07;;;;;;;10.18;2.83;;;;;;;;;;5141378;27;20027;-76
2021/04/10 11:51:33;;;;;;;9.68;3.95;;;;;;;;;;5141403;27;20421;-76
2021/04/10 11:53:59;;;;;;;9.00;3.72;;;;;;;;;;5141288;27;20035;-76
2021/04/10 11:56:26;;;;;;;7.82;3.50;;;;;;;;;;5139781;27;20118;-76
2021/04/10 11:59:06;;;;;;;8.90;3.50;;;;;;;;;;5140114;27;20023;-76
2021/04/10 12:01:32;;;;;;;10.57;5.15;;;;;;;;;;5141342;27;20026;-76
2021/04/10 12:04:02;;;;;;;16.48;6.80;;;;;;;;;;5139877;27;20027;-76
2021/04/10 12:06:40;;;;;;;13.50;4.95;;;;;;;;;;5141191;27;20023;-76
2021/04/10 12:09:13;;;;;;;11.70;4.43;;;;;;;;;;5141163;27;20025;-76
2021/04/10 12:11:44;;;;;;;8.60;3.40;;;;;;;;;;5140989;27;20023;-76
2021/04/10 12:14:11;;;;;;;12.40;4.57;;;;;;;;;;5140729;27;20023;-76
2021/04/10 12:16:38;;;;;;;13.43;4.63;;;;;;;;;;5139702;27;20015;-76
2021/04/10 12:19:05;;;;;;;10.43;3.38;;;;;;;;;;5140694;27;20038;-76
2021/04/10 12:21:32;;;;;;;10.93;4.65;;;;;;;;;;5140612;27;20051;-76
2021/04/10 12:23:58;;;;;;;9.32;3.58;;;;;;;;;;5139590;27;20031;-77
2021/04/10 12:26:24;;;;;;;9.73;4.47;;;;;;;;;;5140529;27;20026;-77
2021/04/10 12:28:50;;;;;;;10.02;3.72;;;;;;;;;;5140476;27;20019;-76
2021/04/10 12:31:16;;;;;;;8.10;4.10;;;;;;;;;;5140476;27;20465;-77
2021/04/10 12:33:44;;;;;;;6.50;3.65;;;;;;;;;;5140297;27;20294;-76
2021/04/10 12:36:10;;;;;;;9.68;3.90;;;;;;;;;;5139364;27;20474;-76
2021/04/10 12:38:36;;;;;;;9.93;3.60;;;;;;;;;;5140337;27;20106;-76
2021/04/10 12:41:03;;;;;;;10.77;5.53;;;;;;;;;;5139216;27;20027;-77
2021/04/10 12:43:29;;;;;;;10.95;4.35;;;;;;;;;;5140102;27;20057;-76
2021/04/10 12:45:55;;;;;;;10.50;6.70;;;;;;;;;;5140237;27;20287;-77
2021/04/10 12:48:21;;;;;;;16.73;6.15;;;;;;;;;;5140079;27;20058;-76
2021/04/10 12:50:47;;;;;;;10.32;4.38;;;;;;;;;;5140158;27;20018;-76
2021/04/10 12:53:14;;;;;;;11.07;5.68;;;;;;;;;;5140155;27;20030;-81
2021/04/10 12:55:40;;;;;;;37.72;6.72;;;;;;;;;;5140205;27;20336;-83
2021/04/10 12:58:06;;;;;;;8.27;3.30;;;;;;;;;;5140663;27;20023;-83
2021/04/10 13:00:32;;;;;;;13.70;4.47;;;;;;;;;;5139871;27;20435;-82
2021/04/10 13:02:59;;;;;;;19.23;5.57;;;;;;;;;;5139933;27;20380;-82
2021/04/10 13:05:25;;;;;;;11.18;5.35;;;;;;;;;;5140027;27;20029;-82
2021/04/10 13:07:51;;;;;;;15.75;6.10;;;;;;;;;;5139663;27;20019;-82
2021/04/10 13:10:17;;;;;;;13.52;4.57;;;;;;;;;;5139973;27;20040;-82
2021/04/10 13:12:44;;;;;;;11.75;5.25;;;;;;;;;;5139893;27;20027;-82
2021/04/10 13:15:11;;;;;;;11.93;4.72;;;;;;;;;;5139666;27;20023;-82
2021/04/10 13:17:38;;;;;;;9.32;3.47;;;;;;;;;;5139836;27;20023;-83
2021/04/10 13:20:08;;;;;;;13.07;4.82;;;;;;;;;;5139790;27;20063;-82
2021/04/10 13:22:34;;;;;;;14.13;4.28;;;;;;;;;;5140535;27;20023;-85
2021/04/10 13:25:00;;;;;;;7.68;2.95;;;;;;;;;;5141183;27;20102;-84
2021/04/10 13:27:27;;;;;;;7.72;3.50;;;;;;;;;;5142271;27;20023;-90
2021/04/10 13:29:54;;;;;;;9.77;4.22;;;;;;;;;;5140057;27;20350;-86
2021/04/10 13:35:25;;;;;;;8.13;3.15;;;;;;;;;;5139518;27;20115;-88
2021/04/10 13:37:51;;;;;;;7.05;2.92;;;;;;;;;;5139996;27;20325;-89
2021/04/10 13:40:18;;;;;;;15.55;6.22;;;;;;;;;;5130277;27;20027;-87
2021/04/10 13:42:44;;;;;;;10.05;4.30;;;;;;;;;;5118971;28;20392;-87
2021/04/10 13:45:10;;;;;;;8.85;3.80;;;;;;;;;;5119017;28;20028;-87
2021/04/10 13:47:36;;;;;;;10.20;3.50;;;;;;;;;;5118980;28;20016;-87
2021/04/10 13:50:02;;;;;;;9.95;3.75;;;;;;;;;;5119128;28;20035;-87
2021/04/10 13:52:28;;;;;;;9.40;3.13;;;;;;;;;;5117765;28;20041;-86
2021/04/10 13:54:54;;;;;;;10.10;4.72;;;;;;;;;;5118985;28;20054;-87
2021/04/10 13:57:20;;;;;;;9.57;3.58;;;;;;;;;;5118759;28;20107;-89
2021/04/10 13:59:46;;;;;;;6.88;2.90;;;;;;;;;;5118711;28;20071;-88
2021/04/10 14:02:13;;;;;;;7.72;3.60;;;;;;;;;;5118515;28;20030;-87
2021/04/10 14:04:57;;;;;;;10.02;4.75;;;;;;;;;;5118788;28;20065;-87
2021/04/10 14:07:24;;;;;;;8.50;2.70;;;;;;;;;;5118705;28;20020;-85
2021/04/10 14:09:50;;;;;;;7.85;3.80;;;;;;;;;;5117512;28;20455;-83
2021/04/10 14:12:17;;;;;;;20.77;8.57;;;;;;;;;;5118322;28;20023;-84
2021/04/10 14:14:43;;;;;;;52.25;21.23;;;;;;;;;;5118178;28;20057;-84
2021/04/10 14:17:09;;;;;;;20.67;7.15;;;;;;;;;;5117287;28;20035;-81
2021/04/10 14:19:35;;;;;;;23.25;9.20;;;;;;;;;;5117993;28;20046;-84
2021/04/10 14:22:01;;;;;;;5.20;2.05;;;;;;;;;;5117831;28;20035;-79
2021/04/10 14:24:28;;;;;;;10.13;2.92;;;;;;;;;;5116777;28;20051;-80
2021/04/10 14:26:54;;;;;;;9.35;2.75;;;;;;;;;;5117803;28;20020;-81
2021/04/10 14:29:20;;;;;;;9.40;3.75;;;;;;;;;;5117899;28;20144;-79
2021/04/10 14:31:46;;;;;;;7.88;3.63;;;;;;;;;;5117922;28;20030;-79
2021/04/10 14:34:13;;;;;;;3.65;2.20;;;;;;;;;;5117461;28;20295;-79
2021/04/10 14:36:39;;;;;;;10.57;3.78;;;;;;;;;;5117679;28;20094;-80
2021/04/10 14:39:05;;;;;;;8.32;4.72;;;;;;;;;;5117618;28;20023;-80
2021/04/10 14:41:32;;;;;;;10.10;5.05;;;;;;;;;;5117547;28;20019;-79
2021/04/10 14:43:58;;;;;;;14.43;5.20;;;;;;;;;;5117152;28;20126;-79
2021/04/10 14:46:25;;;;;;;12.48;3.95;;;;;;;;;;5117625;28;20024;-79